Time;durP1;ratioP1;P1;durP2;ratioP2;P2;SDS_P1;SDS_P2;PMS_P1;PMS_P2;Temp;Humidity;BMP_temperature;BMP_pressure;BME280_temperature;BME280_humidity;BME280_pressure;Samples;Min_cycle;Max_cycle;Signal;HPM_P1;HPM_P2
2022/07/04 00:00:07;;;;;;;299.03;287.60;;;11.80;95.10;;;;;;4998796;28;20446;-84
2022/07/04 00:02:40;;;;;;;325.07;312.67;;;11.80;96.00;;;;;;4998647;28;20458;-84
2022/07/04 00:05:11;;;;;;;388.53;373.07;;;11.80;96.60;;;;;;4998577;28;20454;-84
2022/07/04 00:07:41;;;;;;;382.57;367.27;;;11.70;97.00;;;;;;4998014;28;20478;-84
2022/07/04 00:10:15;;;;;;;336.80;324.50;;;11.70;97.20;;;;;;4999021;28;20540;-84
2022/07/04 00:12:45;;;;;;;383.47;368.43;;;11.60;96.80;;;;;;4998938;28;20474;-86
2022/07/04 00:15:16;;;;;;;387.27;372.03;;;11.60;97.20;;;;;;4998941;28;21243;-85
2022/07/04 00:17:44;;;;;;;378.77;363.67;;;11.60;97.40;;;;;;4998862;28;20478;-85
2022/07/04 00:20:15;;;;;;;465.57;445.80;;;11.40;97.80;;;;;;4998785;28;20845;-85
2022/07/04 00:22:42;;;;;;;403.50;387.60;;;11.50;98.90;;;;;;4982410;28;20994;-87
2022/07/04 00:25:10;;;;;;;396.53;380.83;;;11.50;98.20;;;;;;4998313;28;20450;-85
2022/07/04 00:27:42;;;;;;;406.10;389.90;;;11.40;98.20;;;;;;4998376;28;20510;-85
2022/07/04 00:30:14;;;;;;;387.57;372.23;;;11.60;98.30;;;;;;4998534;28;20482;-85
2022/07/04 00:32:46;;;;;;;385.33;370.07;;;11.60;97.80;;;;;;4997989;28;20569;-87
2022/07/04 00:35:15;;;;;;;323.50;311.10;;;11.50;98.00;;;;;;4998174;28;20513;-85
2022/07/04 00:37:46;;;;;;;291.87;280.97;;;11.60;97.20;;;;;;4999129;28;20474;-82
2022/07/04 00:40:18;;;;;;;260.70;251.57;;;11.60;96.40;;;;;;4998704;28;20485;-83
2022/07/04 00:42:50;;;;;;;252.20;243.80;;;11.50;95.80;;;;;;4999209;28;20450;-84
2022/07/04 00:45:20;;;;;;;275.73;265.67;;;11.40;95.80;;;;;;4999722;28;20824;-84
2022/07/04 00:47:50;;;;;;;253.50;245.13;;;11.50;96.00;;;;;;4998863;28;21024;-84
2022/07/04 00:50:19;;;;;;;247.90;239.63;;;11.50;96.00;;;;;;4998800;28;20458;-84
2022/07/04 00:52:50;;;;;;;283.97;274.63;;;11.40;95.40;;;;;;4980347;28;21018;-84
2022/07/04 00:55:19;;;;;;;334.63;322.47;;;11.40;95.80;;;;;;4998424;28;20489;-84
2022/07/04 00:57:46;;;;;;;340.80;328.60;;;11.40;96.20;;;;;;4998906;28;20481;-84
2022/07/04 01:00:16;;;;;;;377.67;362.83;;;11.20;95.80;;;;;;4998979;28;20553;-84
2022/07/04 01:02:49;;;;;;;384.33;370.17;;;11.10;96.40;;;;;;4998684;28;20454;-84
2022/07/04 01:05:16;;;;;;;388.30;373.77;;;11.00;96.70;;;;;;4999556;28;20450;-84
2022/07/04 01:07:44;;;;;;;421.43;405.23;;;11.00;97.40;;;;;;4999581;28;20502;-84
2022/07/04 01:10:12;;;;;;;500.13;479.13;;;10.90;98.00;;;;;;4999702;28;20454;-84
2022/07/04 01:12:40;;;;;;;497.87;476.77;;;10.90;98.90;;;;;;4999462;28;20505;-84
2022/07/04 01:15:08;;;;;;;501.27;480.37;;;11.00;98.60;;;;;;4998839;28;20458;-84
2022/07/04 01:17:38;;;;;;;510.37;489.07;;;10.90;99.40;;;;;;4998390;28;20474;-84
2022/07/04 01:20:15;;;;;;;504.73;483.97;;;11.00;99.70;;;;;;5001474;28;20449;-84
2022/07/04 01:22:47;;;;;;;523.87;501.87;;;11.00;99.90;;;;;;5002510;28;20445;-86
2022/07/04 01:25:14;;;;;;;528.53;505.47;;;11.00;99.80;;;;;;5002181;28;20997;-85
2022/07/04 01:27:44;;;;;;;512.47;490.57;;;11.00;99.70;;;;;;5002454;28;20474;-85
2022/07/04 01:30:23;;;;;;;519.13;496.33;;;10.90;99.50;;;;;;5000537;28;20582;-85
2022/07/04 01:32:54;;;;;;;529.60;505.93;;;10.90;99.90;;;;;;5001929;28;20490;-85
2022/07/04 01:35:24;;;;;;;499.40;477.60;;;11.00;99.80;;;;;;5001699;28;20446;-84
2022/07/04 01:37:54;;;;;;;465.33;444.13;;;11.00;99.50;;;;;;4984369;28;20477;-83
2022/07/04 01:40:21;;;;;;;474.40;454.03;;;11.00;98.80;;;;;;5002179;28;20469;-84
2022/07/04 01:42:52;;;;;;;486.70;465.70;;;11.00;98.70;;;;;;5001696;28;20450;-84
2022/07/04 01:45:25;;;;;;;480.77;460.27;;;10.90;99.10;;;;;;5001318;28;20524;-85
2022/07/04 01:47:59;;;;;;;493.57;472.30;;;11.00;99.00;;;;;;5001482;28;20489;-85
2022/07/04 01:50:34;;;;;;;525.10;501.80;;;10.80;99.80;;;;;;5001627;28;20461;-85
2022/07/04 01:53:06;;;;;;;537.77;513.07;;;10.90;99.80;;;;;;5001703;28;20532;-86
2022/07/04 01:55:35;;;;;;;523.27;499.17;;;10.90;99.90;;;;;;5001843;28;20548;-85
2022/07/04 01:58:06;;;;;;;475.17;453.03;;;10.80;99.90;;;;;;5002086;28;20537;-85
2022/07/04 02:03:25;;;;;;;526.83;503.00;;;10.50;99.90;;;;;;5001541;28;20469;-85
2022/07/04 02:06:05;;;;;;;498.87;476.73;;;10.50;99.90;;;;;;5001830;28;20454;-85
2022/07/04 02:13:00;;;;;;;421.10;404.27;;;10.30;99.90;;;;;;5000868;28;20508;-85
2022/07/04 02:14:20;;;;;;;478.30;458.37;;;10.30;99.90;;;;;;5001427;28;20508;-85
2022/07/04 02:16:49;;;;;;;431.60;414.00;;;10.30;99.90;;;;;;5001688;28;20516;-85
2022/07/04 02:19:19;;;;;;;458.13;438.73;;;10.20;99.90;;;;;;5002084;28;20446;-85
2022/07/04 02:21:51;;;;;;;486.50;466.47;;;10.20;99.90;;;;;;5001356;28;20449;-84
2022/07/04 02:24:25;;;;;;;497.83;476.63;;;10.10;99.90;;;;;;5002277;28;20458;-83
2022/07/04 02:26:52;;;;;;;566.90;541.53;;;10.10;99.90;;;;;;5001700;28;20464;-83
2022/07/04 02:29:21;;;;;;;553.93;528.93;;;10.10;99.90;;;;;;5002441;28;20537;-83
2022/07/04 02:31:49;;;;;;;588.20;561.10;;;10.00;99.90;;;;;;4983115;28;20458;-83
2022/07/04 02:34:21;;;;;;;609.57;580.87;;;10.00;99.90;;;;;;5001244;28;20898;-83
2022/07/04 02:36:52;;;;;;;608.67;579.30;;;9.80;99.90;;;;;;5001837;28;20454;-84
2022/07/04 02:39:19;;;;;;;649.80;618.23;;;9.90;99.90;;;;;;5002136;28;20462;-83
2022/07/04 02:41:47;;;;;;;633.47;601.97;;;9.80;99.90;;;;;;5000739;28;20537;-84
2022/07/04 02:44:21;;;;;;;621.10;591.10;;;9.80;99.90;;;;;;5001727;28;21109;-85
2022/07/04 02:46:50;;;;;;;663.10;629.70;;;9.80;99.90;;;;;;5002041;28;20459;-85
2022/07/04 02:49:19;;;;;;;656.83;624.00;;;9.80;99.90;;;;;;5001419;28;20460;-83
2022/07/04 02:51:48;;;;;;;657.23;624.57;;;9.80;99.90;;;;;;5001604;28;20454;-84
2022/07/04 02:54:24;;;;;;;683.90;648.87;;;9.70;99.90;;;;;;5000280;28;20561;-85
2022/07/04 02:56:58;;;;;;;663.00;628.63;;;9.70;99.90;;;;;;5002088;28;20473;-84
2022/07/04 02:59:29;;;;;;;662.83;628.47;;;9.80;99.90;;;;;;5001758;28;20460;-85
2022/07/04 03:01:57;;;;;;;603.00;573.93;;;9.60;99.90;;;;;;4984490;28;20489;-84
2022/07/04 03:04:27;;;;;;;649.00;616.10;;;9.60;99.90;;;;;;5001815;28;20458;-84
2022/07/04 03:06:56;;;;;;;725.93;686.63;;;9.60;99.90;;;;;;5000803;28;20458;-84
2022/07/04 03:09:27;;;;;;;746.67;704.50;;;9.60;99.90;;;;;;5001603;28;20462;-85
2022/07/04 03:12:00;;;;;;;786.57;739.87;;;9.50;99.90;;;;;;5000832;28;20454;-85
2022/07/04 03:14:27;;;;;;;790.13;743.13;;;9.60;99.90;;;;;;5001424;28;21032;-85
2022/07/04 03:16:54;;;;;;;809.13;761.03;;;9.50;99.90;;;;;;5002549;28;20447;-84
2022/07/04 03:19:24;;;;;;;813.53;763.93;;;9.70;99.90;;;;;;5002157;28;20450;-85
2022/07/04 03:21:51;;;;;;;816.97;766.17;;;9.70;99.90;;;;;;5002161;28;20967;-85
2022/07/04 03:24:33;;;;;;;786.03;738.07;;;9.90;99.90;;;;;;5000786;28;20521;-85
2022/07/04 03:27:06;;;;;;;760.60;716.23;;;10.00;99.90;;;;;;5000913;28;20533;-85
2022/07/04 03:29:40;;;;;;;741.53;699.53;;;9.90;99.90;;;;;;4999881;28;20480;-83
2022/07/04 03:32:09;;;;;;;759.07;715.53;;;9.90;99.90;;;;;;5000984;28;20514;-85
2022/07/04 03:34:36;;;;;;;764.90;720.50;;;9.90;99.90;;;;;;5000335;28;20488;-85
2022/07/04 03:37:04;;;;;;;767.23;723.17;;;9.90;99.90;;;;;;5000472;28;20501;-85
2022/07/04 03:39:32;;;;;;;749.13;707.30;;;10.00;99.90;;;;;;5000513;28;20473;-85
2022/07/04 03:42:02;;;;;;;759.57;716.13;;;9.90;99.90;;;;;;5000468;28;20453;-85
2022/07/04 03:44:38;;;;;;;771.13;725.43;;;10.10;99.90;;;;;;5000258;28;20541;-85
2022/07/04 03:47:05;;;;;;;745.60;702.17;;;10.10;99.90;;;;;;4999764;28;20485;-85
2022/07/04 03:49:35;;;;;;;735.73;693.33;;;10.10;99.90;;;;;;4999985;28;20450;-84
2022/07/04 03:52:03;;;;;;;741.00;698.93;;;10.10;99.90;;;;;;4999985;28;20450;-85
2022/07/04 03:54:30;;;;;;;754.90;712.93;;;10.00;99.90;;;;;;4999550;28;20501;-85
2022/07/04 03:56:58;;;;;;;749.83;706.63;;;10.00;99.90;;;;;;4997200;28;20545;-83
2022/07/04 03:59:25;;;;;;;769.53;725.60;;;10.20;99.90;;;;;;4996294;28;20496;-81
2022/07/04 04:01:52;;;;;;;764.10;719.90;;;10.20;99.90;;;;;;4995856;28;21137;-83
2022/07/04 04:07:04;;;;;;;741.07;700.37;;;10.30;99.90;;;;;;4995791;28;20481;-83
2022/07/04 04:09:31;;;;;;;713.63;675.20;;;10.40;99.90;;;;;;4995678;28;20963;-84
2022/07/04 04:12:02;;;;;;;708.87;671.20;;;10.40;99.90;;;;;;4994793;28;20477;-83
2022/07/04 04:14:29;;;;;;;698.97;661.93;;;10.50;99.90;;;;;;4994128;28;20478;-83
2022/07/04 04:16:56;;;;;;;635.07;604.17;;;10.50;99.90;;;;;;4998110;28;20919;-83
2022/07/04 04:19:23;;;;;;;672.17;639.50;;;10.50;99.90;;;;;;4999484;28;20541;-83
2022/07/04 04:21:49;;;;;;;779.50;737.90;;;10.60;99.90;;;;;;4998657;28;20545;-84
2022/07/04 04:24:16;;;;;;;784.87;741.47;;;10.70;99.90;;;;;;4998685;28;20461;-83
2022/07/04 04:26:43;;;;;;;782.93;738.57;;;10.70;99.90;;;;;;4998668;28;20529;-83
2022/07/04 04:29:11;;;;;;;794.03;749.00;;;10.70;99.90;;;;;;4998692;28;20831;-83
2022/07/04 04:31:40;;;;;;;798.50;752.40;;;10.80;99.90;;;;;;4994677;28;20954;-83
2022/07/04 04:34:07;;;;;;;824.17;776.60;;;10.80;99.90;;;;;;4994257;28;21138;-83
2022/07/04 04:36:37;;;;;;;843.43;792.87;;;10.90;99.90;;;;;;4995577;28;20465;-83
2022/07/04 04:39:06;;;;;;;844.63;792.73;;;10.90;99.90;;;;;;4993975;28;20621;-84
2022/07/04 04:41:33;;;;;;;860.37;806.87;;;11.10;99.90;;;;;;4995280;28;20450;-83
2022/07/04 04:44:06;;;;;;;849.80;795.30;;;11.20;99.90;;;;;;4994603;28;20536;-83
2022/07/04 04:46:34;;;;;;;861.07;806.87;;;11.20;99.90;;;;;;4995547;28;20446;-83
2022/07/04 04:49:00;;;;;;;856.20;800.23;;;11.20;99.90;;;;;;4995849;28;20516;-84
2022/07/04 04:51:29;;;;;;;832.80;776.43;;;11.50;99.90;;;;;;4995647;28;20545;-83
2022/07/04 04:53:56;;;;;;;814.50;762.97;;;11.70;99.90;;;;;;4996807;28;20477;-84
2022/07/04 04:56:23;;;;;;;813.30;764.93;;;12.10;99.90;;;;;;5002256;28;20464;-83
2022/07/04 04:58:49;;;;;;;775.57;730.67;;;12.20;99.90;;;;;;5000951;28;20560;-83
2022/07/04 05:01:16;;;;;;;729.37;689.37;;;12.20;99.90;;;;;;5002398;28;20464;-84
2022/07/04 05:03:44;;;;;;;680.37;644.17;;;12.40;99.90;;;;;;5004245;28;20460;-85
2022/07/04 05:06:11;;;;;;;629.30;597.40;;;12.50;99.90;;;;;;5003680;28;20485;-83
2022/07/04 05:08:38;;;;;;;571.83;544.03;;;12.70;99.90;;;;;;5003295;28;20903;-83
2022/07/04 05:11:05;;;;;;;573.53;546.23;;;12.70;99.90;;;;;;5003413;28;20460;-83
2022/07/04 05:13:37;;;;;;;538.00;513.30;;;12.90;99.90;;;;;;5001602;28;20492;-85
2022/07/04 05:16:04;;;;;;;497.47;474.90;;;12.90;99.90;;;;;;5000687;28;20442;-84
2022/07/04 05:18:31;;;;;;;481.83;460.97;;;13.00;99.90;;;;;;5000140;28;20488;-83
2022/07/04 05:21:00;;;;;;;505.60;483.00;;;13.10;99.90;;;;;;5001267;28;20457;-83
2022/07/04 05:23:27;;;;;;;536.67;511.43;;;13.30;99.90;;;;;;5001521;28;20456;-83
2022/07/04 05:25:54;;;;;;;318.47;306.33;;;13.90;99.90;;;;;;5001211;28;20481;-83
2022/07/04 05:28:21;;;;;;;11.87;10.97;;;14.60;99.90;;;;;;5002809;28;20537;-84
2022/07/04 05:30:48;;;;;;;5.90;5.30;;;15.00;96.90;;;;;;5000662;28;20472;-84
2022/07/04 05:33:15;;;;;;;5.23;2.63;;;15.70;94.60;;;;;;5000988;28;20962;-85
2022/07/04 05:35:42;;;;;;;5.73;2.43;;;16.10;92.10;;;;;;5001320;28;20453;-84
2022/07/04 05:38:10;;;;;;;8.00;3.00;;;17.20;90.10;;;;;;5000415;28;20478;-84
2022/07/04 05:40:37;;;;;;;6.10;2.40;;;17.80;81.30;;;;;;4999964;28;20478;-84
2022/07/04 05:43:04;;;;;;;6.10;2.87;;;18.10;74.30;;;;;;4999987;28;20488;-85
2022/07/04 05:45:31;;;;;;;6.80;2.10;;;18.50;70.90;;;;;;4999975;28;20548;-84
2022/07/04 05:47:59;;;;;;;5.07;2.20;;;18.80;66.80;;;;;;5000198;28;20595;-83
2022/07/04 05:50:26;;;;;;;6.27;2.17;;;19.00;63.30;;;;;;4999606;28;20497;-84
2022/07/04 05:52:53;;;;;;;4.93;2.23;;;19.30;61.20;;;;;;4999975;28;20457;-84
2022/07/04 05:55:25;;;;;;;9.50;2.50;;;19.60;61.10;;;;;;4999433;28;20448;-84
2022/07/04 05:57:53;;;;;;;4.50;1.87;;;19.90;56.80;;;;;;4999661;28;20553;-84
2022/07/04 06:00:21;;;;;;;8.27;1.93;;;20.00;55.60;;;;;;4999778;28;20838;-84
2022/07/04 06:02:50;;;;;;;6.53;2.30;;;20.50;53.70;;;;;;4999566;28;20593;-84
2022/07/04 06:05:20;;;;;;;6.17;2.00;;;20.60;49.80;;;;;;4996783;28;20487;-85
2022/07/04 06:07:48;;;;;;;5.30;1.90;;;20.80;48.10;;;;;;4995742;28;20664;-84
2022/07/04 06:10:15;;;;;;;8.20;1.87;;;20.80;45.10;;;;;;4997820;28;20464;-81
2022/07/04 06:12:44;;;;;;;5.67;2.07;;;20.90;45.20;;;;;;4996019;28;20454;-80
2022/07/04 06:15:12;;;;;;;8.53;2.77;;;20.90;46.70;;;;;;4996829;28;20485;-81
2022/07/04 06:17:39;;;;;;;6.20;2.60;;;21.40;45.70;;;;;;4995891;28;20481;-80
2022/07/04 06:20:07;;;;;;;7.83;2.57;;;21.50;44.20;;;;;;4997537;28;20462;-81
2022/07/04 06:22:40;;;;;;;5.80;1.80;;;21.90;40.10;;;;;;4997295;28;20983;-80
2022/07/04 06:25:07;;;;;;;9.13;2.37;;;21.90;39.50;;;;;;4996333;28;20456;-81
2022/07/04 06:27:34;;;;;;;6.23;2.00;;;22.00;40.20;;;;;;4997737;28;20474;-81
2022/07/04 06:30:03;;;;;;;8.83;2.07;;;21.90;37.70;;;;;;5001756;28;20957;-82
2022/07/04 06:32:29;;;;;;;5.73;1.77;;;21.90;36.00;;;;;;5002383;28;20459;-84
2022/07/04 06:37:42;;;;;;;9.40;2.33;;;22.40;41.00;;;;;;5001540;28;20972;-81
2022/07/04 06:40:10;;;;;;;7.13;2.10;;;22.60;36.30;;;;;;5002422;28;20460;-81
2022/07/04 06:42:36;;;;;;;7.20;2.27;;;22.50;32.20;;;;;;5001288;28;20460;-82
2022/07/04 06:45:05;;;;;;;5.43;1.47;;;22.70;34.20;;;;;;5001502;28;20462;-81
2022/07/04 06:47:32;;;;;;;9.87;1.87;;;22.90;29.10;;;;;;5000011;28;20565;-82
2022/07/04 06:49:58;;;;;;;8.27;1.93;;;22.50;29.20;;;;;;4998157;28;20830;-79
2022/07/04 06:52:25;;;;;;;8.33;1.90;;;22.80;29.00;;;;;;4995594;28;20462;-79
2022/07/04 06:54:52;;;;;;;5.30;1.77;;;22.50;27.50;;;;;;4995299;28;20492;-80
2022/07/04 06:57:19;;;;;;;7.97;1.90;;;22.30;27.30;;;;;;4994917;28;20480;-79
2022/07/04 06:59:45;;;;;;;5.30;1.50;;;22.60;33.30;;;;;;4995193;28;20989;-81
2022/07/04 07:02:13;;;;;;;5.10;1.70;;;22.60;28.60;;;;;;4995567;28;20457;-80
2022/07/04 07:04:41;;;;;;;8.90;1.60;;;22.80;27.50;;;;;;4995452;28;20465;-80
2022/07/04 07:07:07;;;;;;;5.33;1.30;;;22.80;26.30;;;;;;4995384;28;20473;-79
2022/07/04 07:09:34;;;;;;;4.10;0.90;;;22.60;23.50;;;;;;4995308;28;20541;-79
2022/07/04 07:12:01;;;;;;;4.63;1.10;;;22.40;23.40;;;;;;4994954;28;20856;-79
2022/07/04 07:14:28;;;;;;;4.30;0.87;;;22.40;23.00;;;;;;4994454;28;21009;-80
2022/07/04 07:16:55;;;;;;;5.93;1.23;;;22.70;21.60;;;;;;4994228;28;20461;-79
2022/07/04 07:19:23;;;;;;;9.63;1.93;;;22.70;23.30;;;;;;4994385;28;20468;-80
2022/07/04 07:21:49;;;;;;;6.07;1.03;;;22.60;24.00;;;;;;4994465;28;20458;-80
2022/07/04 07:24:16;;;;;;;4.30;1.17;;;22.90;23.50;;;;;;4994767;28;20424;-80
2022/07/04 07:26:43;;;;;;;5.53;1.30;;;22.90;22.00;;;;;;4994265;28;20867;-80
2022/07/04 07:29:10;;;;;;;7.20;1.53;;;23.10;21.90;;;;;;4995063;28;20461;-79
2022/07/04 07:31:36;;;;;;;4.10;1.10;;;23.30;22.10;;;;;;4994989;28;20480;-80
2022/07/04 07:34:03;;;;;;;6.03;1.23;;;23.50;21.60;;;;;;4994358;28;21013;-80
2022/07/04 07:36:31;;;;;;;6.07;1.30;;;23.70;20.30;;;;;;4994872;28;20458;-79
2022/07/04 07:38:58;;;;;;;4.33;0.93;;;23.60;20.60;;;;;;4994638;28;20478;-80
2022/07/04 07:41:24;;;;;;;5.33;1.43;;;24.00;19.90;;;;;;4994656;28;20457;-80
2022/07/04 07:43:51;;;;;;;4.10;1.07;;;23.80;16.00;;;;;;4994665;28;20458;-80
2022/07/04 07:46:18;;;;;;;5.90;1.30;;;24.10;15.90;;;;;;4994884;28;20954;-82
2022/07/04 07:48:45;;;;;;;3.70;0.80;;;24.10;14.70;;;;;;4994254;28;20489;-80
2022/07/04 07:51:13;;;;;;;6.27;1.30;;;23.60;13.60;;;;;;4994848;28;20462;-79
2022/07/04 07:53:41;;;;;;;6.57;1.50;;;24.20;16.30;;;;;;4994163;28;20469;-79
2022/07/04 07:56:08;;;;;;;5.40;1.00;;;24.40;15.10;;;;;;4994457;28;20454;-79
2022/07/04 07:58:35;;;;;;;5.13;0.90;;;24.70;21.30;;;;;;4994761;28;20480;-80
2022/07/04 08:01:02;;;;;;;4.20;0.90;;;24.30;13.70;;;;;;4994199;28;20436;-78
2022/07/04 08:06:13;;;;;;;4.33;0.90;;;23.80;12.90;;;;;;4974264;28;20478;-79
2022/07/04 08:08:42;;;;;;;4.40;0.93;;;23.80;9.30;;;;;;4974072;28;20485;-79
2022/07/04 08:11:09;;;;;;;6.43;1.33;;;23.80;12.80;;;;;;4974246;28;20455;-79
2022/07/04 08:13:36;;;;;;;4.03;0.90;;;24.10;9.30;;;;;;4974104;28;20459;-80
2022/07/04 08:16:03;;;;;;;3.80;0.90;;;23.70;10.70;;;;;;4973798;28;20458;-80
2022/07/04 08:18:30;;;;;;;6.97;1.10;;;23.80;12.20;;;;;;4975261;28;20838;-78
2022/07/04 08:20:57;;;;;;;5.73;1.00;;;23.70;13.00;;;;;;4976745;28;20841;-80
2022/07/04 08:23:24;;;;;;;5.53;1.10;;;23.70;12.10;;;;;;4977266;28;20873;-83
2022/07/04 08:25:52;;;;;;;5.70;1.10;;;24.50;14.10;;;;;;4979790;28;20451;-83
2022/07/04 08:28:21;;;;;;;4.20;0.87;;;25.00;12.00;;;;;;4974715;28;20475;-84
2022/07/04 08:30:47;;;;;;;6.80;1.10;;;25.20;12.40;;;;;;4973222;28;20425;-84
2022/07/04 08:33:14;;;;;;;6.67;1.17;;;25.10;10.30;;;;;;4976609;28;20509;-83
2022/07/04 08:35:41;;;;;;;6.90;1.17;;;25.00;7.50;;;;;;4974398;28;20872;-82
2022/07/04 08:38:34;;;;;;;7.00;1.27;;;25.00;8.10;;;;;;4973611;28;20475;-86
2022/07/04 08:43:59;;;;;;;4.57;1.43;;;24.40;5.20;;;;;;4982866;28;20839;-82
2022/07/04 08:46:30;;;;;;;7.80;1.03;;;24.10;3.40;;;;;;4979676;28;20486;-88
2022/07/04 08:49:03;;;;;;;5.23;1.03;;;23.60;8.50;;;;;;4973825;28;20493;-85
2022/07/04 08:51:44;;;;;;;4.83;1.07;;;23.90;9.90;;;;;;4974408;28;20459;-85
2022/07/04 09:00:29;;;;;;;5.10;1.00;;;24.90;5.80;;;;;;4975958;28;20449;-89
2022/07/04 09:03:12;;;;;;;5.27;0.90;;;25.20;3.40;;;;;;4976419;28;20444;-89
2022/07/04 09:05:49;;;;;;;10.13;1.10;;;25.50;6.40;;;;;;4976410;28;20459;-90
2022/07/04 09:08:20;;;;;;;8.80;1.20;;;25.80;3.60;;;;;;5009014;23;20544;-87
2022/07/04 09:10:54;;;;;;;5.00;1.10;;;26.00;4.10;;;;;;4998709;28;20475;-88
2022/07/04 09:13:31;;;;;;;5.60;1.10;;;26.70;2.60;;;;;;4995039;28;20453;-87
2022/07/04 09:16:09;;;;;;;4.03;1.00;;;25.90;2.50;;;;;;4995566;28;20484;-88
2022/07/04 09:19:00;;;;;;;6.03;1.20;;;26.10;4.90;;;;;;4996942;28;20478;-88
2022/07/04 09:21:50;;;;;;;6.23;1.10;;;25.80;1.00;;;;;;4963580;28;20458;-88
2022/07/04 09:25:14;;;;;;;;;;;;;;;;;;;;;
2022/07/04 09:56:16;;;;;;;6.00;1.10;;;29.00;1.00;;;;;;4911195;29;20933;-89
2022/07/04 10:06:18;;;;;;;4.13;0.93;;;28.30;1.00;;;;;;4928907;28;20670;-89
2022/07/04 10:15:51;;;;;;;4.60;1.20;;;27.30;1.00;;;;;;4983687;28;20446;-88
2022/07/04 10:22:50;;;;;;;4.67;1.20;;;29.40;1.00;;;;;;4915048;29;20932;-90
2022/07/04 10:26:12;;;;;;;5.33;0.93;;;30.30;1.00;;;;;;4957919;28;20474;-88
2022/07/04 10:51:19;;;;;;;;;;;;;;;;;;;;;
2022/07/04 10:55:00;;;;;;;4.97;1.17;;;26.80;1.00;;;;;;4975412;28;20487;-87
2022/07/04 10:57:28;;;;;;;4.90;1.40;;;27.80;1.00;;;;;;4975012;23;21020;-86
2022/07/04 11:00:07;;;;;;;4.73;0.90;;;29.00;1.00;;;;;;4955705;29;20471;-86
2022/07/04 11:02:34;;;;;;;6.90;1.30;;;27.90;1.00;;;;;;4955390;29;20519;-85
2022/07/04 11:05:03;;;;;;;6.43;1.17;;;26.80;1.00;;;;;;4974295;28;20491;-86
2022/07/04 11:08:02;;;;;;;4.50;1.00;;;25.90;1.00;;;;;;4974651;28;20453;-86
2022/07/04 11:10:33;;;;;;;4.87;1.20;;;25.90;1.00;;;;;;4974763;28;20459;-87
2022/07/04 11:13:15;;;;;;;4.10;1.20;;;26.90;1.00;;;;;;4974624;28;20461;-87
2022/07/04 11:16:02;;;;;;;7.40;1.47;;;28.20;1.00;;;;;;4974342;28;20462;-86
2022/07/04 11:18:30;;;;;;;9.33;1.50;;;28.30;1.00;;;;;;4974311;28;20454;-86
2022/07/04 11:20:57;;;;;;;6.50;0.90;;;28.50;1.00;;;;;;4974581;28;20451;-87
2022/07/04 11:23:24;;;;;;;5.80;1.10;;;29.60;1.00;;;;;;4993841;28;20468;-86
2022/07/04 11:25:54;;;;;;;4.43;0.97;;;29.70;1.00;;;;;;4993518;28;20838;-86
2022/07/04 11:28:23;;;;;;;5.80;1.10;;;29.10;1.00;;;;;;4993943;28;20935;-84
2022/07/04 11:30:51;;;;;;;3.80;0.87;;;29.50;1.00;;;;;;4993703;28;20435;-85
2022/07/04 11:33:20;;;;;;;7.80;1.37;;;30.30;1.00;;;;;;4993794;28;20457;-86
2022/07/04 11:36:05;;;;;;;5.07;1.07;;;30.10;1.00;;;;;;4993523;28;20481;-86
2022/07/04 11:38:50;;;;;;;7.23;1.23;;;31.00;1.00;;;;;;4993692;28;20803;-85
2022/07/04 11:47:06;;;;;;;4.63;1.30;;;29.40;1.00;;;;;;4958198;28;20501;-85
2022/07/04 11:49:33;;;;;;;6.27;0.97;;;30.00;1.00;;;;;;4993565;28;20829;-86
2022/07/04 11:52:00;;;;;;;5.97;1.10;;;29.20;1.00;;;;;;4994640;28;20461;-84
2022/07/04 11:54:27;;;;;;;4.27;0.90;;;30.10;1.00;;;;;;4994410;28;20812;-84
2022/07/04 11:57:08;;;;;;;4.30;1.13;;;29.30;1.00;;;;;;4993256;28;20478;-84
2022/07/04 11:59:36;;;;;;;4.10;0.97;;;29.50;1.00;;;;;;4992518;28;20429;-87
2022/07/04 12:02:14;;;;;;;4.97;1.00;;;30.80;1.00;;;;;;4992163;28;20461;-84
2022/07/04 12:04:42;;;;;;;5.27;1.10;;;30.90;1.00;;;;;;4987774;28;20420;-84
2022/07/04 12:07:14;;;;;;;4.27;0.93;;;31.60;1.00;;;;;;4972561;28;20478;-84
2022/07/04 12:09:41;;;;;;;4.77;1.53;;;33.00;1.00;;;;;;4972362;28;20922;-84
2022/07/04 12:12:09;;;;;;;5.30;1.03;;;31.00;1.00;;;;;;4972162;28;20834;-84
2022/07/04 12:14:38;;;;;;;5.20;0.93;;;30.50;1.00;;;;;;4972326;28;20433;-84
2022/07/04 12:17:16;;;;;;;5.63;1.20;;;31.20;1.00;;;;;;4972497;28;20989;-84
2022/07/04 12:19:54;;;;;;;5.20;1.10;;;31.60;1.00;;;;;;4972402;28;20465;-83
2022/07/04 12:22:36;;;;;;;5.90;1.20;;;32.20;1.00;;;;;;4972833;28;20462;-83
2022/07/04 12:25:05;;;;;;;4.20;1.00;;;31.00;1.00;;;;;;4971895;28;20462;-85
2022/07/04 12:27:32;;;;;;;7.33;1.37;;;33.10;1.00;;;;;;4972537;28;20449;-85
2022/07/04 12:30:01;;;;;;;4.77;1.13;;;30.60;1.00;;;;;;4972190;28;20486;-84
2022/07/04 12:32:46;;;;;;;10.90;1.30;;;29.20;1.00;;;;;;4972544;28;20455;-84
2022/07/04 12:35:49;;;;;;;4.87;1.00;;;27.50;1.00;;;;;;4971564;28;20450;-84
2022/07/04 12:38:16;;;;;;;4.70;1.20;;;26.40;1.00;;;;;;4972947;28;20458;-89
2022/07/04 12:40:58;;;;;;;6.40;1.50;;;26.30;1.00;;;;;;4973616;28;20454;-83
2022/07/04 12:43:27;;;;;;;4.60;1.00;;;25.40;1.00;;;;;;4972335;28;20447;-84
2022/07/04 12:45:56;;;;;;;5.63;1.03;;;26.70;1.00;;;;;;4972988;28;20850;-84
2022/07/04 12:48:25;;;;;;;7.03;1.30;;;26.80;1.00;;;;;;4972915;28;20978;-84
2022/07/04 12:50:53;;;;;;;4.07;0.97;;;26.50;1.00;;;;;;4972493;28;20458;-84
2022/07/04 12:53:20;;;;;;;4.50;1.20;;;26.70;1.00;;;;;;4972591;28;20458;-84
2022/07/04 12:55:48;;;;;;;7.37;1.53;;;26.60;1.00;;;;;;4935948;28;1050422;-84
2022/07/04 12:58:15;;;;;;;6.03;1.70;;;26.80;1.00;;;;;;4973397;28;20827;-84
2022/07/04 13:00:42;;;;;;;4.63;1.33;;;26.30;1.00;;;;;;4972879;28;20439;-83
2022/07/04 13:03:10;;;;;;;4.30;0.90;;;26.10;1.00;;;;;;4973026;28;20433;-83
2022/07/04 13:05:37;;;;;;;9.67;1.20;;;26.20;1.00;;;;;;4972777;28;20481;-83
2022/07/04 13:08:05;;;;;;;7.57;1.30;;;25.90;1.00;;;;;;4973032;28;20432;-84
2022/07/04 13:10:33;;;;;;;6.27;1.17;;;26.10;1.00;;;;;;4973241;28;20470;-85
2022/07/04 13:13:00;;;;;;;5.30;1.10;;;26.30;1.00;;;;;;4973071;28;20521;-84
2022/07/04 13:15:26;;;;;;;4.60;1.13;;;26.10;1.00;;;;;;4974437;28;20447;-84
2022/07/04 13:17:53;;;;;;;6.40;1.27;;;26.30;1.00;;;;;;4978324;28;20464;-85
2022/07/04 13:20:21;;;;;;;7.30;1.00;;;26.20;1.00;;;;;;4991518;28;20461;-87
2022/07/04 13:22:48;;;;;;;5.20;0.90;;;26.70;1.00;;;;;;4987695;28;20461;-84
2022/07/04 13:25:15;;;;;;;4.77;0.97;;;27.70;1.00;;;;;;4977783;28;20425;-84
2022/07/04 13:27:42;;;;;;;5.80;1.20;;;29.00;1.00;;;;;;4977356;28;20486;-85
2022/07/04 13:30:09;;;;;;;4.53;1.23;;;30.10;1.00;;;;;;4980975;28;20980;-86
2022/07/04 13:32:36;;;;;;;5.13;1.10;;;30.20;1.00;;;;;;4977235;28;20465;-85
2022/07/04 13:35:03;;;;;;;4.00;1.17;;;29.50;1.00;;;;;;4976715;28;20454;-86
2022/07/04 13:37:31;;;;;;;4.37;1.07;;;28.80;1.00;;;;;;4976957;28;20453;-86
2022/07/04 13:39:58;;;;;;;4.47;1.07;;;28.50;1.00;;;;;;4977807;28;20462;-84
2022/07/04 13:45:10;;;;;;;5.50;1.33;;;28.00;1.00;;;;;;4976605;28;20438;-84
2022/07/04 13:47:36;;;;;;;7.93;1.10;;;28.20;1.00;;;;;;4976663;28;20493;-84
2022/07/04 13:50:04;;;;;;;5.93;1.07;;;27.80;1.00;;;;;;4976318;28;20458;-84
2022/07/04 13:52:32;;;;;;;7.03;1.50;;;27.80;1.00;;;;;;4977255;28;20454;-84
2022/07/04 13:54:58;;;;;;;5.07;1.10;;;28.60;1.00;;;;;;4976822;28;20493;-82
2022/07/04 13:57:25;;;;;;;4.13;1.17;;;28.40;1.00;;;;;;4977395;28;20567;-83
2022/07/04 13:59:52;;;;;;;5.53;1.20;;;27.60;1.00;;;;;;4978059;28;20465;-84
2022/07/04 14:02:19;;;;;;;4.70;1.13;;;28.00;1.00;;;;;;4976397;28;20939;-83
2022/07/04 14:04:45;;;;;;;11.37;2.40;;;29.00;1.00;;;;;;4975947;28;20455;-85
2022/07/04 14:07:12;;;;;;;4.80;1.30;;;29.00;1.00;;;;;;4975500;28;20513;-85
2022/07/04 14:09:40;;;;;;;4.80;1.00;;;28.70;1.00;;;;;;4975991;28;20480;-85
2022/07/04 14:12:09;;;;;;;3.90;0.80;;;29.10;1.00;;;;;;4976089;28;20479;-85
2022/07/04 14:14:36;;;;;;;6.77;0.90;;;29.40;1.00;;;;;;4975852;28;20459;-85
2022/07/04 14:17:03;;;;;;;4.50;1.10;;;30.30;1.00;;;;;;4976712;28;21018;-84
2022/07/04 14:19:30;;;;;;;5.70;1.33;;;30.70;1.00;;;;;;4977346;28;20455;-84
2022/07/04 14:21:57;;;;;;;7.90;1.03;;;30.40;1.00;;;;;;4976234;28;20436;-83
2022/07/04 14:24:25;;;;;;;4.43;1.10;;;30.20;1.00;;;;;;4976067;28;20437;-85
2022/07/04 14:26:53;;;;;;;10.37;1.10;;;29.80;1.00;;;;;;4974678;28;20482;-85
2022/07/04 14:29:20;;;;;;;5.13;1.20;;;30.40;1.00;;;;;;4975675;28;20934;-85
2022/07/04 14:31:47;;;;;;;4.23;1.13;;;31.60;1.00;;;;;;4975530;28;20470;-84